Time;durP1;ratioP1;P1;durP2;ratioP2;P2;SDS_P1;SDS_P2;PMS_P1;PMS_P2;Temp;Humidity;BMP_temperature;BMP_pressure;BME280_temperature;BME280_humidity;BME280_pressure;Samples;Min_cycle;Max_cycle;Signal;HPM_P1;HPM_P2
2021/04/16 00:02:03;;;;;;;9.38;7.05;;;-0.40;65.20;;;;;;4991274;29;20137;-63
2021/04/16 00:04:35;;;;;;;10.38;7.13;;;-0.50;65.50;;;;;;4994178;29;20054;-63
2021/04/16 00:07:06;;;;;;;11.27;6.95;;;-0.60;66.20;;;;;;4993849;29;20050;-63
2021/04/16 00:09:38;;;;;;;10.38;7.20;;;-0.80;66.50;;;;;;4994933;29;20125;-63
2021/04/16 00:12:11;;;;;;;10.35;6.70;;;-0.90;67.00;;;;;;4992974;29;20137;-63
2021/04/16 00:14:42;;;;;;;9.02;6.97;;;-1.10;67.90;;;;;;4994710;29;20124;-63
2021/04/16 00:17:14;;;;;;;10.55;7.50;;;-1.30;68.30;;;;;;4992624;29;20053;-63
2021/04/16 00:19:46;;;;;;;9.63;7.15;;;-1.30;68.40;;;;;;5007024;29;20054;-63
2021/04/16 00:22:17;;;;;;;10.63;7.00;;;-1.40;68.60;;;;;;5006225;29;20058;-63
2021/04/16 00:24:49;;;;;;;11.35;6.95;;;-1.40;68.80;;;;;;5010333;29;20050;-63
2021/04/16 00:27:20;;;;;;;11.07;6.97;;;-1.40;68.80;;;;;;4993480;29;20050;-63
2021/04/16 00:29:52;;;;;;;9.25;6.88;;;-1.40;68.90;;;;;;4991699;29;20082;-63
2021/04/16 00:32:23;;;;;;;9.65;6.93;;;-1.50;68.70;;;;;;4990801;29;20563;-64
2021/04/16 00:34:55;;;;;;;11.90;7.32;;;-1.50;69.50;;;;;;4994389;29;20121;-63
2021/04/16 00:37:26;;;;;;;9.73;6.88;;;-1.50;69.50;;;;;;4993283;29;20157;-63
2021/04/16 00:39:58;;;;;;;9.52;7.30;;;-1.50;69.00;;;;;;4996174;29;20050;-63
2021/04/16 00:42:29;;;;;;;10.77;7.20;;;-1.50;69.00;;;;;;4992998;29;20106;-63
2021/04/16 00:45:01;;;;;;;9.77;7.47;;;-1.60;69.10;;;;;;4994994;29;20075;-63
2021/04/16 00:47:33;;;;;;;10.68;7.28;;;-1.60;69.00;;;;;;4988310;29;20073;-62
2021/04/16 00:50:11;;;;;;;11.55;7.20;;;-1.70;69.10;;;;;;4992913;29;20133;-63
2021/04/16 00:52:42;;;;;;;9.98;6.95;;;-1.70;69.30;;;;;;4992766;29;20508;-63
2021/04/16 00:55:15;;;;;;;9.48;6.82;;;-1.70;69.10;;;;;;4992039;29;20054;-63
2021/04/16 00:57:46;;;;;;;10.85;6.78;;;-1.70;69.20;;;;;;4990387;29;20101;-63
2021/04/16 01:00:19;;;;;;;10.10;7.20;;;-1.70;69.10;;;;;;4992104;29;20501;-63
2021/04/16 01:02:50;;;;;;;10.82;7.03;;;-1.80;69.20;;;;;;4993895;29;20054;-63
2021/04/16 01:05:23;;;;;;;9.15;6.60;;;-1.80;69.20;;;;;;4991912;29;20142;-63
2021/04/16 01:07:54;;;;;;;10.30;7.22;;;-1.80;69.40;;;;;;4993025;29;20466;-63
2021/04/16 01:10:26;;;;;;;10.65;7.45;;;-1.80;69.50;;;;;;5005032;29;20056;-63
2021/04/16 01:12:57;;;;;;;11.30;6.75;;;-1.90;69.70;;;;;;5008954;29;20939;-63
2021/04/16 01:15:34;;;;;;;9.30;6.70;;;-1.80;69.60;;;;;;4994027;29;20074;-63
2021/04/16 01:18:11;;;;;;;8.77;6.53;;;-1.70;70.10;;;;;;4991800;29;20124;-63
2021/04/16 01:20:47;;;;;;;11.90;6.80;;;-1.50;69.10;;;;;;4993938;29;20050;-63
2021/04/16 01:23:22;;;;;;;9.93;6.70;;;-1.40;68.10;;;;;;4992960;29;20061;-63
2021/04/16 01:25:58;;;;;;;8.93;6.28;;;-1.40;67.70;;;;;;4991612;29;20138;-63
2021/04/16 01:28:30;;;;;;;9.50;6.68;;;-1.40;67.70;;;;;;4995052;29;20088;-63
2021/04/16 01:31:14;;;;;;;10.20;6.90;;;-1.30;68.30;;;;;;5006793;29;20061;-63
2021/04/16 01:33:49;;;;;;;10.65;7.45;;;-1.40;68.20;;;;;;4994967;29;20046;-63
2021/04/16 01:36:33;;;;;;;11.80;7.43;;;-1.60;68.40;;;;;;4992115;29;20488;-63
2021/04/16 01:39:05;;;;;;;10.00;6.90;;;-1.80;68.50;;;;;;4989905;29;20073;-63
2021/04/16 01:41:37;;;;;;;12.00;7.65;;;-1.90;69.10;;;;;;4990535;29;20061;-63
2021/04/16 01:44:11;;;;;;;9.98;6.97;;;-2.00;69.30;;;;;;4993274;29;20050;-63
2021/04/16 01:46:52;;;;;;;10.85;6.70;;;-1.90;69.90;;;;;;4986508;29;20082;-63
2021/04/16 01:49:36;;;;;;;10.55;7.47;;;-1.80;69.60;;;;;;4992957;29;20042;-63
2021/04/16 01:52:11;;;;;;;10.35;6.65;;;-1.80;68.90;;;;;;4993528;29;20183;-65
2021/04/16 01:54:46;;;;;;;10.30;6.78;;;-1.70;69.30;;;;;;4994661;29;20183;-63
2021/04/16 01:57:24;;;;;;;11.55;7.45;;;-1.70;68.60;;;;;;4991274;29;20058;-64
2021/04/16 01:59:56;;;;;;;11.80;7.30;;;-1.70;68.20;;;;;;4993039;29;20046;-64
2021/04/16 02:02:32;;;;;;;9.98;6.95;;;-1.70;68.10;;;;;;4990611;29;20872;-64
2021/04/16 02:05:04;;;;;;;10.20;7.00;;;-1.80;69.40;;;;;;4993427;29;20050;-65
2021/04/16 02:07:36;;;;;;;9.25;6.57;;;-1.70;69.00;;;;;;4994561;29;20532;-65
2021/04/16 02:10:10;;;;;;;12.60;7.22;;;-1.80;68.10;;;;;;4992486;29;20043;-65
2021/04/16 02:12:41;;;;;;;10.55;6.88;;;-1.80;68.40;;;;;;5005626;29;20475;-65
2021/04/16 02:15:13;;;;;;;10.18;7.43;;;-1.90;67.90;;;;;;4990341;29;20046;-65
2021/04/16 02:17:45;;;;;;;10.25;6.90;;;-1.90;68.00;;;;;;4988673;29;20057;-64
2021/04/16 02:20:21;;;;;;;10.48;7.53;;;-2.00;68.30;;;;;;4991126;29;20431;-64
2021/04/16 02:22:52;;;;;;;10.95;7.30;;;-2.00;69.00;;;;;;4992996;29;20932;-64
2021/04/16 02:25:24;;;;;;;9.98;6.88;;;-2.10;68.90;;;;;;4986025;29;20074;-64
2021/04/16 02:27:55;;;;;;;10.05;6.78;;;-2.00;69.00;;;;;;4990031;29;20130;-64
2021/04/16 02:30:32;;;;;;;10.65;7.05;;;-2.00;68.70;;;;;;4991562;29;20057;-64
2021/04/16 02:33:03;;;;;;;13.10;7.22;;;-1.90;68.90;;;;;;4993182;29;20473;-64
2021/04/16 02:35:35;;;;;;;10.90;7.30;;;-1.90;69.00;;;;;;4990708;29;20054;-64
2021/04/16 02:38:06;;;;;;;9.57;6.88;;;-1.80;68.30;;;;;;4989268;29;20083;-64
2021/04/16 02:40:38;;;;;;;10.45;6.85;;;-1.90;68.20;;;;;;4988866;29;20084;-64
2021/04/16 02:43:10;;;;;;;9.60;6.55;;;-1.90;68.60;;;;;;4988463;29;20167;-63
2021/04/16 02:45:41;;;;;;;12.30;7.45;;;-1.90;68.80;;;;;;4992400;29;20054;-64
2021/04/16 02:48:13;;;;;;;11.63;7.32;;;-1.80;68.40;;;;;;5002326;29;20512;-64
2021/04/16 02:50:45;;;;;;;10.75;7.60;;;-1.70;67.60;;;;;;5002814;29;20106;-64
2021/04/16 02:53:16;;;;;;;9.70;6.80;;;-1.70;67.20;;;;;;4988985;29;20763;-64
2021/04/16 02:55:48;;;;;;;10.52;7.43;;;-1.80;67.20;;;;;;4987675;29;20077;-65
2021/04/16 02:58:20;;;;;;;10.77;7.65;;;-2.00;68.00;;;;;;5008107;29;20187;-64
2021/04/16 03:00:51;;;;;;;12.82;7.75;;;-2.20;68.30;;;;;;4989470;29;20154;-65
2021/04/16 03:03:23;;;;;;;10.45;7.13;;;-2.20;68.90;;;;;;4988952;29;20763;-64
2021/04/16 03:05:54;;;;;;;10.23;7.03;;;-2.20;68.80;;;;;;5001999;29;20081;-64
2021/04/16 03:08:26;;;;;;;11.02;7.00;;;-2.30;68.70;;;;;;4991445;29;20071;-63
2021/04/16 03:10:57;;;;;;;11.57;7.63;;;-2.40;69.30;;;;;;4991488;29;20148;-66
2021/04/16 03:13:29;;;;;;;10.70;7.43;;;-2.40;70.00;;;;;;4991066;29;20123;-65
2021/04/16 03:16:01;;;;;;;12.48;7.53;;;-2.50;69.80;;;;;;4988178;29;20172;-64
2021/04/16 03:18:32;;;;;;;11.45;7.50;;;-2.60;70.00;;;;;;4991367;29;20042;-66
2021/04/16 03:21:04;;;;;;;10.02;7.03;;;-2.60;71.10;;;;;;4988868;29;20504;-65
2021/04/16 03:23:35;;;;;;;11.68;7.53;;;-2.60;70.20;;;;;;4989221;29;20057;-64
2021/04/16 03:26:07;;;;;;;13.82;7.82;;;-2.70;70.60;;;;;;4988611;29;20146;-64
2021/04/16 03:28:39;;;;;;;11.55;8.05;;;-2.70;70.50;;;;;;4989476;29;20056;-65
2021/04/16 03:31:11;;;;;;;12.30;8.13;;;-2.70;70.20;;;;;;5002846;29;20466;-65
2021/04/16 03:33:43;;;;;;;12.50;7.80;;;-2.70;70.00;;;;;;4990765;29;20141;-65
2021/04/16 03:36:14;;;;;;;10.88;7.30;;;-2.70;70.00;;;;;;4987055;29;20042;-65
2021/04/16 03:38:47;;;;;;;13.90;9.13;;;-2.70;70.00;;;;;;4987711;29;20604;-65
2021/04/16 03:41:19;;;;;;;12.93;8.20;;;-2.70;69.80;;;;;;4991603;29;20050;-65
2021/04/16 03:43:51;;;;;;;11.95;7.65;;;-2.70;69.60;;;;;;4991864;29;20183;-64
2021/04/16 03:46:22;;;;;;;12.48;8.10;;;-2.70;70.70;;;;;;4988456;29;20046;-64
2021/04/16 03:48:54;;;;;;;11.93;7.30;;;-2.70;69.80;;;;;;4987279;29;20054;-65
2021/04/16 03:51:26;;;;;;;12.30;8.10;;;-2.70;69.90;;;;;;5004728;29;20738;-65
2021/04/16 03:53:58;;;;;;;12.15;7.78;;;-2.70;69.70;;;;;;4991200;29;20050;-65
2021/04/16 03:56:30;;;;;;;12.40;7.88;;;-2.70;70.00;;;;;;4989538;29;20065;-65
2021/04/16 03:59:01;;;;;;;11.38;6.95;;;-2.70;70.30;;;;;;4991540;29;20049;-65
2021/04/16 04:01:32;;;;;;;11.05;7.38;;;-2.60;70.50;;;;;;4991492;29;20046;-65
2021/04/16 04:04:05;;;;;;;16.20;10.02;;;-2.60;69.50;;;;;;4987665;29;20058;-65
2021/04/16 04:06:36;;;;;;;12.23;8.02;;;-2.50;70.30;;;;;;4989446;29;20066;-64
2021/04/16 04:09:08;;;;;;;12.10;8.10;;;-2.40;70.20;;;;;;4987852;29;20138;-65
2021/04/16 04:11:40;;;;;;;11.40;8.00;;;-2.40;69.90;;;;;;4991637;29;20050;-64
2021/04/16 04:14:12;;;;;;;12.63;8.38;;;-2.40;69.90;;;;;;4990286;29;20091;-64
2021/04/16 04:16:54;;;;;;;11.60;8.13;;;-2.50;69.60;;;;;;4992255;29;20126;-64
2021/04/16 04:19:28;;;;;;;11.43;8.07;;;-2.70;69.40;;;;;;4989311;29;20058;-64
2021/04/16 04:22:00;;;;;;;13.77;8.75;;;-2.90;70.40;;;;;;4988026;29;20046;-64
2021/04/16 04:24:32;;;;;;;13.52;8.07;;;-2.90;70.70;;;;;;4992397;29;20526;-64
2021/04/16 04:27:03;;;;;;;11.93;8.00;;;-3.00;70.80;;;;;;4993630;29;20088;-64
2021/04/16 04:29:35;;;;;;;11.75;7.68;;;-3.10;71.10;;;;;;4987076;29;20054;-64
2021/04/16 04:32:07;;;;;;;12.82;8.02;;;-3.10;71.20;;;;;;4988925;29;20051;-65
2021/04/16 04:34:39;;;;;;;11.77;7.60;;;-3.10;71.40;;;;;;5004991;29;20054;-64
2021/04/16 04:37:11;;;;;;;12.07;8.30;;;-3.10;71.50;;;;;;4986171;29;20046;-66
2021/04/16 04:39:43;;;;;;;12.23;7.85;;;-3.00;71.80;;;;;;5002401;29;20046;-64
2021/04/16 04:42:15;;;;;;;11.82;7.68;;;-2.90;71.10;;;;;;4989374;29;21018;-64
2021/04/16 04:44:46;;;;;;;10.75;7.43;;;-2.80;70.80;;;;;;4985633;29;20098;-64
2021/04/16 04:47:18;;;;;;;12.20;7.75;;;-2.70;71.40;;;;;;4987925;29;20107;-64
2021/04/16 04:49:49;;;;;;;12.68;7.47;;;-2.60;70.70;;;;;;5006170;29;20107;-64
2021/04/16 04:52:34;;;;;;;12.57;7.95;;;-2.50;70.00;;;;;;4995296;29;20049;-63
2021/04/16 04:55:12;;;;;;;13.40;7.65;;;-2.50;70.00;;;;;;4996812;29;20095;-64
2021/04/16 04:57:43;;;;;;;13.05;8.35;;;-2.40;69.80;;;;;;5011845;29;20398;-64
2021/04/16 05:00:16;;;;;;;10.43;7.15;;;-2.50;70.30;;;;;;4992283;29;20182;-64
2021/04/16 05:02:47;;;;;;;14.63;8.43;;;-2.50;70.20;;;;;;4991779;29;20092;-65
2021/04/16 05:05:21;;;;;;;14.10;8.10;;;-2.50;69.50;;;;;;4990027;29;20092;-65
2021/04/16 05:07:52;;;;;;;13.02;7.57;;;-2.40;69.40;;;;;;5006467;29;20105;-64
2021/04/16 05:10:24;;;;;;;11.38;7.53;;;-2.30;69.60;;;;;;4991060;29;20042;-64
2021/04/16 05:12:55;;;;;;;11.38;7.18;;;-2.20;69.20;;;;;;4991121;29;20054;-63
2021/04/16 05:15:27;;;;;;;14.23;8.80;;;-2.20;68.90;;;;;;4994243;29;20113;-63
2021/04/16 05:17:58;;;;;;;22.85;14.00;;;-2.10;69.70;;;;;;4991227;29;20446;-64
2021/04/16 05:20:30;;;;;;;66.90;38.60;;;-1.90;70.90;;;;;;4991875;29;20133;-64
2021/04/16 05:23:01;;;;;;;58.22;33.08;;;-1.80;70.40;;;;;;5007059;29;20581;-64
2021/04/16 05:25:33;;;;;;;44.00;24.10;;;-1.60;70.50;;;;;;4991959;29;20133;-64
2021/04/16 05:28:04;;;;;;;26.00;15.95;;;-1.50;70.60;;;;;;4993328;29;20039;-64
2021/04/16 05:30:36;;;;;;;16.52;10.55;;;-1.40;70.30;;;;;;5002527;29;20046;-64
2021/04/16 05:33:07;;;;;;;27.25;15.38;;;-1.30;70.90;;;;;;4988155;29;20534;-64
2021/04/16 05:35:39;;;;;;;35.35;18.35;;;-1.20;70.00;;;;;;4988168;29;20101;-64
2021/04/16 05:38:10;;;;;;;28.17;15.30;;;-1.10;69.60;;;;;;4988777;29;20126;-64
2021/04/16 05:40:42;;;;;;;24.17;12.98;;;-0.90;69.00;;;;;;5002862;29;20110;-64
2021/04/16 05:43:13;;;;;;;31.77;16.98;;;-0.80;68.50;;;;;;4990065;29;20073;-64
2021/04/16 05:45:44;;;;;;;28.95;15.93;;;-0.60;68.20;;;;;;4990570;29;20050;-64
2021/04/16 05:48:16;;;;;;;39.55;20.63;;;-0.60;68.00;;;;;;4988252;29;20110;-63
2021/04/16 05:50:47;;;;;;;37.00;18.58;;;-0.50;67.60;;;;;;4990377;29;20146;-63
2021/04/16 05:53:19;;;;;;;25.27;14.65;;;-0.40;67.20;;;;;;5005796;29;20065;-65
2021/04/16 05:55:50;;;;;;;23.48;13.13;;;-0.30;66.70;;;;;;4990652;29;20138;-63
2021/04/16 05:58:21;;;;;;;14.93;8.70;;;-0.20;66.10;;;;;;4994192;29;20069;-65
2021/04/16 06:00:53;;;;;;;12.48;8.05;;;-0.20;66.20;;;;;;4991345;29;20081;-63
2021/04/16 06:03:24;;;;;;;14.55;8.55;;;0.00;65.90;;;;;;4993305;29;20602;-65
2021/04/16 06:05:58;;;;;;;13.50;8.63;;;0.00;66.00;;;;;;5004031;29;20046;-63
2021/04/16 06:08:29;;;;;;;13.02;8.05;;;0.20;65.70;;;;;;5007008;29;20050;-64
2021/04/16 06:11:02;;;;;;;17.95;10.40;;;0.30;65.30;;;;;;4988890;29;20195;-63
2021/04/16 06:13:36;;;;;;;12.70;8.32;;;0.40;64.70;;;;;;4997086;29;20058;-63
2021/04/16 06:16:11;;;;;;;13.77;8.55;;;0.50;64.40;;;;;;4993343;29;20045;-64
2021/04/16 06:18:42;;;;;;;13.27;7.60;;;0.60;63.90;;;;;;5006723;29;20047;-64
2021/04/16 06:21:14;;;;;;;12.05;8.05;;;0.80;62.80;;;;;;4991907;29;20122;-64
2021/04/16 06:23:45;;;;;;;13.38;8.15;;;0.90;62.50;;;;;;4992612;29;20062;-63
2021/04/16 06:26:17;;;;;;;12.07;8.32;;;0.80;62.50;;;;;;4988879;29;20092;-63
2021/04/16 06:28:49;;;;;;;10.80;7.47;;;0.90;62.10;;;;;;4991688;29;20729;-64
2021/04/16 06:31:20;;;;;;;10.20;6.47;;;1.00;61.60;;;;;;4999527;29;20122;-64
2021/04/16 06:33:52;;;;;;;10.77;7.15;;;1.00;60.50;;;;;;4993519;29;20078;-64
2021/04/16 06:36:23;;;;;;;17.73;9.20;;;1.20;60.60;;;;;;4991219;29;20465;-64
2021/04/16 06:38:54;;;;;;;12.98;7.25;;;1.20;60.90;;;;;;5001073;29;20153;-64
2021/04/16 06:41:30;;;;;;;14.30;8.55;;;1.20;61.30;;;;;;4988534;29;20049;-64
2021/04/16 06:44:27;;;;;;;12.75;7.95;;;1.40;60.40;;;;;;4990658;29;20771;-63
2021/04/16 06:47:09;;;;;;;12.73;7.07;;;1.60;59.90;;;;;;4984750;29;20078;-64
2021/04/16 06:49:42;;;;;;;11.48;6.80;;;1.70;58.40;;;;;;4989520;29;20099;-63
2021/04/16 06:52:20;;;;;;;11.13;7.28;;;1.70;58.30;;;;;;4990859;29;20054;-63
2021/04/16 06:55:14;;;;;;;11.65;7.00;;;1.80;58.00;;;;;;4991870;29;20442;-64
2021/04/16 06:58:06;;;;;;;10.88;6.40;;;1.90;58.00;;;;;;4991944;29;20061;-63
2021/04/16 07:00:46;;;;;;;9.77;7.18;;;2.00;57.50;;;;;;5005061;29;20126;-64
2021/04/16 07:03:19;;;;;;;;;;;2.20;58.70;;;;;;4989693;29;20457;-63
2021/04/16 07:06:15;;;;;;;11.23;7.88;;;2.40;58.40;;;;;;4991149;29;19924;-63
2021/04/16 07:09:15;;;;;;;19.10;8.00;;;2.60;57.50;;;;;;4992096;29;20525;-64
2021/04/16 07:12:00;;;;;;;11.77;7.43;;;2.70;56.50;;;;;;4990273;29;20042;-64
2021/04/16 07:14:51;;;;;;;13.15;7.10;;;2.80;55.40;;;;;;4992601;29;20049;-64
2021/04/16 07:17:34;;;;;;;12.73;7.10;;;3.00;56.20;;;;;;4991459;29;20540;-63
2021/04/16 07:20:10;;;;;;;12.98;8.02;;;3.10;55.50;;;;;;4989171;29;20053;-64
2021/04/16 07:22:51;;;;;;;11.63;7.72;;;3.20;55.80;;;;;;4987236;29;20050;-64
2021/04/16 07:25:44;;;;;;;14.65;8.15;;;3.30;55.50;;;;;;4990765;29;20069;-64
2021/04/16 07:28:40;;;;;;;13.10;8.23;;;3.40;54.60;;;;;;4990664;29;20145;-64
2021/04/16 07:31:26;;;;;;;12.43;8.95;;;3.40;55.30;;;;;;4992145;29;20061;-64
2021/04/16 07:33:59;;;;;;;14.55;7.72;;;3.50;54.60;;;;;;4992540;29;20480;-64
2021/04/16 07:36:38;;;;;;;11.88;8.60;;;3.60;54.20;;;;;;4988403;29;20451;-64
2021/04/16 07:39:13;;;;;;;11.25;8.07;;;3.70;54.20;;;;;;4993259;29;20524;-64
2021/04/16 07:41:48;;;;;;;10.75;8.32;;;3.80;53.10;;;;;;4988374;29;20046;-63
2021/04/16 07:44:34;;;;;;;12.23;8.52;;;3.80;53.70;;;;;;5006591;29;20535;-68
2021/04/16 07:47:11;;;;;;;12.68;8.50;;;3.90;54.20;;;;;;4988840;29;20172;-64
2021/04/16 07:50:17;;;;;;;12.38;8.52;;;4.00;53.70;;;;;;4992549;29;20046;-64
2021/04/16 07:52:49;;;;;;;12.18;8.95;;;4.10;53.70;;;;;;4989251;29;20138;-64
2021/04/16 07:55:28;;;;;;;12.65;8.77;;;4.10;53.10;;;;;;4990386;29;20437;-64
2021/04/16 07:58:25;;;;;;;11.27;8.67;;;4.20;52.90;;;;;;4994266;29;20134;-65
2021/04/16 08:00:57;;;;;;;12.63;8.55;;;4.30;53.20;;;;;;4991954;29;20299;-64
2021/04/16 08:03:42;;;;;;;12.55;9.25;;;4.40;52.60;;;;;;4990896;29;20519;-63
2021/04/16 08:06:34;;;;;;;14.63;9.55;;;4.40;52.70;;;;;;4991788;29;20499;-64
2021/04/16 08:09:25;;;;;;;13.45;8.27;;;4.20;53.60;;;;;;4993454;29;20490;-64
2021/04/16 08:12:00;;;;;;;14.15;8.93;;;4.30;54.30;;;;;;5004999;29;20133;-65
2021/04/16 08:14:33;;;;;;;12.35;9.20;;;4.50;53.50;;;;;;4991717;29;20054;-64
2021/04/16 08:17:28;;;;;;;12.38;9.00;;;4.40;53.40;;;;;;4988180;29;20050;-64
2021/04/16 08:20:26;;;;;;;12.57;9.82;;;4.30;55.30;;;;;;4991510;29;20042;-64
2021/04/16 08:23:15;;;;;;;15.57;9.98;;;4.50;55.20;;;;;;5006492;29;20045;-64
2021/04/16 08:25:52;;;;;;;13.88;10.07;;;4.50;55.70;;;;;;4991622;29;20504;-64
2021/04/16 08:28:41;;;;;;;13.25;10.25;;;4.60;56.70;;;;;;4994766;29;20046;-64
2021/04/16 08:31:19;;;;;;;14.32;10.95;;;4.70;56.80;;;;;;4993006;29;20059;-64
2021/04/16 08:33:59;;;;;;;14.32;10.18;;;4.60;56.90;;;;;;4994690;29;20042;-64
2021/04/16 08:36:38;;;;;;;13.80;9.90;;;4.80;56.00;;;;;;4992407;29;20074;-64
2021/04/16 08:39:19;;;;;;;15.73;10.82;;;5.00;56.40;;;;;;4994613;29;20046;-64
2021/04/16 08:42:02;;;;;;;12.20;9.45;;;5.20;53.60;;;;;;4995360;29;20050;-64
2021/04/16 08:45:02;;;;;;;12.95;9.88;;;5.00;55.60;;;;;;4992353;29;20114;-64
2021/04/16 08:48:01;;;;;;;13.07;10.43;;;5.20;54.50;;;;;;4994367;29;20520;-64
2021/04/16 08:50:36;;;;;;;14.20;10.45;;;5.00;53.60;;;;;;4990698;29;20081;-67
2021/04/16 08:53:07;;;;;;;12.70;9.80;;;5.10;53.90;;;;;;4996794;29;20046;-65
2021/04/16 08:55:40;;;;;;;13.25;9.52;;;5.20;53.90;;;;;;4995773;29;20481;-64
2021/04/16 08:58:30;;;;;;;12.50;9.80;;;5.40;53.00;;;;;;4990086;29;20043;-64
2021/04/16 09:01:16;;;;;;;11.90;8.93;;;5.70;52.00;;;;;;4994379;29;20057;-64
2021/04/16 09:03:54;;;;;;;11.88;8.98;;;6.00;50.40;;;;;;4990813;29;20516;-65
2021/04/16 09:06:32;;;;;;;18.45;9.20;;;6.30;48.80;;;;;;4991627;29;20050;-64
2021/04/16 09:09:07;;;;;;;12.82;9.57;;;6.50;48.20;;;;;;4991196;29;20425;-65
2021/04/16 09:11:41;;;;;;;12.50;9.32;;;6.70;48.10;;;;;;4990463;29;20516;-65
2021/04/16 09:14:25;;;;;;;12.48;9.57;;;6.90;47.80;;;;;;4993102;29;20049;-65
2021/04/16 09:16:59;;;;;;;11.25;9.20;;;7.10;47.40;;;;;;4991755;29;20114;-65
2021/04/16 09:19:30;;;;;;;12.60;10.32;;;7.30;46.40;;;;;;4993353;29;20070;-64
2021/04/16 09:22:02;;;;;;;11.55;9.23;;;6.80;46.50;;;;;;4989639;29;20586;-64
2021/04/16 09:24:59;;;;;;;12.90;9.30;;;6.80;48.60;;;;;;4992311;29;20041;-64
2021/04/16 09:27:41;;;;;;;11.93;9.75;;;7.10;47.80;;;;;;4993302;29;20722;-64
2021/04/16 09:30:20;;;;;;;11.90;9.23;;;7.30;46.20;;;;;;4991652;29;20054;-64
2021/04/16 09:32:53;;;;;;;11.93;9.48;;;7.10;45.70;;;;;;4990559;29;20122;-65
2021/04/16 09:35:28;;;;;;;12.02;9.82;;;7.20;47.00;;;;;;4994656;29;20487;-64
2021/04/16 09:38:31;;;;;;;13.73;10.13;;;7.30;45.50;;;;;;4994197;29;20673;-65
2021/04/16 09:41:08;;;;;;;11.90;9.35;;;7.40;45.00;;;;;;4991608;29;20075;-64
2021/04/16 09:43:41;;;;;;;12.23;9.13;;;7.60;46.70;;;;;;4992057;29;20051;-64
2021/04/16 09:46:31;;;;;;;12.15;9.82;;;7.70;44.50;;;;;;4992791;29;20046;-65
2021/04/16 09:49:10;;;;;;;12.77;9.52;;;7.70;45.30;;;;;;4992102;29;20126;-65
2021/04/16 09:51:45;;;;;;;13.40;9.75;;;7.70;44.20;;;;;;4991245;29;20361;-66
2021/04/16 09:54:24;;;;;;;12.82;10.00;;;7.80;44.60;;;;;;4992707;29;20122;-65
2021/04/16 09:57:01;;;;;;;11.98;9.75;;;7.80;44.00;;;;;;4989998;29;20107;-65
2021/04/16 09:59:41;;;;;;;13.32;9.70;;;8.00;44.30;;;;;;4989953;29;20057;-64
2021/04/16 10:04:55;;;;;;;17.08;11.98;;;8.20;43.30;;;;;;4993704;29;20126;-64
2021/04/16 10:07:39;;;;;;;11.45;8.98;;;8.20;42.60;;;;;;4989621;29;20648;-64
2021/04/16 10:10:44;;;;;;;11.73;10.18;;;8.40;41.60;;;;;;4990035;29;20045;-64
2021/04/16 10:13:30;;;;;;;12.25;9.60;;;8.40;40.30;;;;;;4991189;29;20127;-64
2021/04/16 10:16:22;;;;;;;10.80;9.07;;;8.60;43.90;;;;;;4993098;29;20129;-64
2021/04/16 10:18:53;;;;;;;12.00;9.20;;;8.60;40.80;;;;;;4987382;29;20054;-64
2021/04/16 10:21:28;;;;;;;12.70;10.25;;;8.70;42.40;;;;;;4990851;29;20810;-65
2021/04/16 10:25:12;;;;;;;12.50;10.13;;;8.70;42.40;;;;;;4995405;29;20110;-64
2021/04/16 11:45:21;;;;;;;11.18;8.82;;;9.80;37.60;;;;;;4990773;29;20079;-65
2021/04/16 12:39:19;;;;;;;10.05;8.98;;;11.80;32.70;;;;;;4990012;29;20466;-66
2021/04/16 12:41:54;;;;;;;11.55;9.80;;;11.80;32.10;;;;;;4987822;29;20493;-64
2021/04/16 12:44:39;;;;;;;10.18;9.07;;;11.90;32.90;;;;;;4990676;29;20039;-64
2021/04/16 12:47:10;;;;;;;10.18;9.18;;;12.00;32.90;;;;;;4988594;29;20066;-64
2021/04/16 12:49:42;;;;;;;10.55;9.25;;;11.90;32.50;;;;;;4982361;29;20130;-65
2021/04/16 12:52:17;;;;;;;17.15;12.73;;;12.00;33.10;;;;;;4984847;29;20218;-65
2021/04/16 12:54:52;;;;;;;11.77;10.35;;;12.10;32.60;;;;;;4986848;29;20039;-68
2021/04/16 12:57:41;;;;;;;11.20;9.55;;;12.00;31.80;;;;;;4986552;29;20057;-66
2021/04/16 13:00:24;;;;;;;11.30;10.10;;;12.10;32.80;;;;;;4986893;29;20046;-65
2021/04/16 13:03:06;;;;;;;10.93;9.27;;;12.10;31.70;;;;;;4992505;29;20058;-66
2021/04/16 13:05:38;;;;;;;11.00;9.40;;;12.10;31.90;;;;;;4988991;29;20062;-65
2021/04/16 13:08:10;;;;;;;10.77;9.40;;;11.80;33.40;;;;;;4987720;29;20512;-65
2021/04/16 13:10:41;;;;;;;10.32;9.20;;;11.80;32.60;;;;;;4989518;29;20760;-65
2021/04/16 13:13:17;;;;;;;11.18;9.68;;;11.80;32.30;;;;;;4989914;29;20042;-64
2021/04/16 13:15:49;;;;;;;11.05;9.90;;;12.00;33.40;;;;;;4989561;29;20043;-64
2021/04/16 13:18:30;;;;;;;10.63;9.52;;;12.00;32.30;;;;;;4992847;29;20126;-65
2021/04/16 13:21:07;;;;;;;9.60;8.43;;;12.20;32.50;;;;;;4988581;29;20090;-65
2021/04/16 13:23:39;;;;;;;11.35;10.15;;;12.30;32.00;;;;;;4990936;29;20054;-68
2021/04/16 13:26:11;;;;;;;10.15;8.43;;;12.50;32.30;;;;;;4992369;29;20064;-64
2021/04/16 13:28:43;;;;;;;10.40;9.23;;;12.60;31.30;;;;;;4990842;29;20426;-66
2021/04/16 13:31:15;;;;;;;10.55;9.45;;;12.70;30.70;;;;;;4987714;29;20050;-64
2021/04/16 13:33:48;;;;;;;10.48;9.27;;;12.60;31.10;;;;;;4989805;29;20720;-66
2021/04/16 13:36:23;;;;;;;10.57;9.48;;;12.70;31.90;;;;;;4990883;29;20125;-65
2021/04/16 13:38:54;;;;;;;11.27;8.85;;;12.70;31.00;;;;;;4995902;29;20638;-66
2021/04/16 13:41:26;;;;;;;11.07;9.38;;;12.80;30.20;;;;;;4990915;29;20130;-66
2021/04/16 13:43:59;;;;;;;10.25;9.15;;;12.70;30.60;;;;;;4988080;29;20146;-65
2021/04/16 13:46:34;;;;;;;10.82;9.05;;;12.80;30.90;;;;;;5002325;29;20059;-70
2021/04/16 13:49:14;;;;;;;10.32;8.88;;;12.80;30.40;;;;;;4990949;29;20057;-68
2021/04/16 13:51:46;;;;;;;10.32;9.23;;;12.80;31.00;;;;;;4989229;29;20053;-66
2021/04/16 13:54:18;;;;;;;9.40;8.43;;;12.90;31.10;;;;;;4993137;29;20140;-66
2021/04/16 13:56:51;;;;;;;10.55;8.55;;;12.90;31.00;;;;;;4989391;29;20512;-65
2021/04/16 13:59:24;;;;;;;10.75;8.32;;;12.70;31.80;;;;;;4994898;29;20049;-66
2021/04/16 14:01:56;;;;;;;10.85;8.30;;;12.30;31.00;;;;;;4989456;29;20045;-66
2021/04/16 14:04:36;;;;;;;10.52;9.23;;;12.10;32.00;;;;;;4990904;29;20081;-68
2021/04/16 14:07:07;;;;;;;10.05;8.70;;;11.90;32.30;;;;;;4991640;29;20078;-66
2021/04/16 14:09:39;;;;;;;9.50;8.48;;;11.70;32.20;;;;;;4989940;29;20114;-66
2021/04/16 14:12:12;;;;;;;10.10;8.50;;;11.70;32.50;;;;;;4994376;29;20050;-66
2021/04/16 14:14:44;;;;;;;9.98;8.93;;;11.70;32.20;;;;;;4993548;29;20390;-66
2021/04/16 14:17:22;;;;;;;10.73;9.27;;;12.10;32.80;;;;;;4990081;29;20125;-66
2021/04/16 14:20:02;;;;;;;10.30;9.18;;;12.30;32.00;;;;;;4989098;29;20532;-70
2021/04/16 14:22:41;;;;;;;10.65;9.63;;;12.70;31.70;;;;;;4990479;29;20060;-67
2021/04/16 14:25:34;;;;;;;9.52;8.52;;;13.10;30.60;;;;;;4991509;29;20057;-66
2021/04/16 14:28:11;;;;;;;12.68;9.48;;;13.40;29.50;;;;;;4986651;29;20136;-67
2021/04/16 14:30:43;;;;;;;10.07;9.07;;;13.70;30.00;;;;;;4991684;29;20407;-66
2021/04/16 14:33:20;;;;;;;9.38;8.38;;;13.90;29.80;;;;;;4990318;29;20652;-67
2021/04/16 14:35:52;;;;;;;9.48;8.50;;;14.20;29.90;;;;;;4988768;29;20053;-65
2021/04/16 14:38:25;;;;;;;10.63;9.52;;;14.40;29.30;;;;;;4994156;29;20038;-64
2021/04/16 14:40:56;;;;;;;10.32;9.23;;;14.70;28.40;;;;;;4990009;29;20046;-63
2021/04/16 14:43:29;;;;;;;9.10;8.20;;;14.50;28.60;;;;;;5008475;29;20047;-64
2021/04/16 14:46:03;;;;;;;10.07;9.07;;;14.70;28.70;;;;;;5004402;29;20394;-64
2021/04/16 14:48:34;;;;;;;10.27;9.05;;;14.90;27.90;;;;;;4989220;29;20058;-63
2021/04/16 14:51:08;;;;;;;9.95;8.95;;;15.00;27.30;;;;;;4989175;29;20054;-63
2021/04/16 14:53:47;;;;;;;9.77;8.60;;;14.40;28.30;;;;;;4985765;29;20425;-63
2021/04/16 14:56:21;;;;;;;9.38;8.43;;;13.70;29.10;;;;;;4985734;29;20062;-63
2021/04/16 14:59:07;;;;;;;10.20;8.70;;;13.40;29.40;;;;;;4988327;29;20046;-63
2021/04/16 15:01:39;;;;;;;11.40;8.80;;;13.40;29.80;;;;;;4990983;29;20545;-64
2021/04/16 15:04:11;;;;;;;10.77;8.48;;;13.50;29.20;;;;;;4992533;29;20126;-63
2021/04/16 15:06:42;;;;;;;10.43;7.90;;;13.20;29.20;;;;;;4992376;29;20065;-63
2021/04/16 15:09:15;;;;;;;9.93;8.27;;;12.90;30.30;;;;;;4991340;29;20489;-64
2021/04/16 15:11:49;;;;;;;19.52;13.23;;;12.50;29.90;;;;;;4985586;29;20167;-64
2021/04/16 15:14:29;;;;;;;12.93;11.40;;;12.10;31.20;;;;;;4990690;29;20046;-65
2021/04/16 15:17:00;;;;;;;10.30;8.07;;;11.80;31.60;;;;;;4990252;29;20085;-63
2021/04/16 15:19:46;;;;;;;9.55;8.20;;;11.70;31.80;;;;;;5002168;29;20050;-63
2021/04/16 15:22:29;;;;;;;10.95;9.15;;;12.40;31.30;;;;;;4988063;29;20704;-63
2021/04/16 15:25:00;;;;;;;10.02;9.02;;;13.20;29.50;;;;;;5007064;29;20066;-63
2021/04/16 15:27:41;;;;;;;12.05;9.70;;;13.80;29.80;;;;;;4990611;29;20485;-63
2021/04/16 15:30:27;;;;;;;10.75;9.65;;;14.50;30.00;;;;;;4990479;29;20050;-64
2021/04/16 15:33:01;;;;;;;11.27;9.93;;;15.20;28.30;;;;;;4990633;29;20066;-65
2021/04/16 15:47:04;;;;;;;10.23;9.23;;;15.90;26.30;;;;;;4986338;29;20134;-63
2021/04/16 15:49:36;;;;;;;10.65;9.55;;;16.20;26.70;;;;;;4989988;29;20591;-64